sensor_id;sensor_type;location;lat;lon;timestamp;P1;durP1;ratioP1;P2;durP2;ratioP2
64597;SDS011;51004;54.692;9.332;2023-03-01T00:01:32;56.10;;;9.80;;
64597;SDS011;51004;54.692;9.332;2023-03-01T00:03:58;53.70;;;9.00;;
64597;SDS011;51004;54.692;9.332;2023-03-01T00:06:24;59.33;;;9.23;;
64597;SDS011;51004;54.692;9.332;2023-03-01T00:08:50;33.47;;;8.15;;
64597;SDS011;51004;54.692;9.332;2023-03-01T00:11:18;59.90;;;8.93;;
64597;SDS011;51004;54.692;9.332;2023-03-01T00:13:45;35.33;;;9.05;;
64597;SDS011;51004;54.692;9.332;2023-03-01T00:16:12;32.45;;;8.32;;
64597;SDS011;51004;54.692;9.332;2023-03-01T00:18:39;30.30;;;7.90;;
64597;SDS011;51004;54.692;9.332;2023-03-01T00:21:05;36.40;;;7.93;;
64597;SDS011;51004;54.692;9.332;2023-03-01T00:23:31;31.27;;;8.68;;
64597;SDS011;51004;54.692;9.332;2023-03-01T00:25:57;31.02;;;8.00;;
64597;SDS011;51004;54.692;9.332;2023-03-01T00:28:22;38.92;;;8.18;;
64597;SDS011;51004;54.692;9.332;2023-03-01T00:30:48;35.80;;;8.30;;
64597;SDS011;51004;54.692;9.332;2023-03-01T00:33:14;66.78;;;8.25;;
64597;SDS011;51004;54.692;9.332;2023-03-01T00:35:40;28.98;;;8.25;;
64597;SDS011;51004;54.692;9.332;2023-03-01T00:38:06;22.35;;;6.97;;
64597;SDS011;51004;54.692;9.332;2023-03-01T00:40:33;22.52;;;7.55;;
64597;SDS011;51004;54.692;9.332;2023-03-01T00:43:00;27.48;;;8.30;;
64597;SDS011;51004;54.692;9.332;2023-03-01T00:45:26;48.17;;;9.55;;
64597;SDS011;51004;54.692;9.332;2023-03-01T00:47:52;27.45;;;8.70;;
64597;SDS011;51004;54.692;9.332;2023-03-01T00:50:18;24.52;;;7.72;;
64597;SDS011;51004;54.692;9.332;2023-03-01T00:52:44;48.60;;;8.48;;
64597;SDS011;51004;54.692;9.332;2023-03-01T00:55:11;17.88;;;7.95;;
64597;SDS011;51004;54.692;9.332;2023-03-01T00:57:37;38.92;;;8.68;;
64597;SDS011;51004;54.692;9.332;2023-03-01T01:00:04;21.38;;;7.80;;
64597;SDS011;51004;54.692;9.332;2023-03-01T01:02:32;26.63;;;7.40;;
64597;SDS011;51004;54.692;9.332;2023-03-01T01:04:58;21.30;;;7.97;;
64597;SDS011;51004;54.692;9.332;2023-03-01T01:07:24;33.97;;;8.45;;
64597;SDS011;51004;54.692;9.332;2023-03-01T01:09:49;28.73;;;7.90;;
64597;SDS011;51004;54.692;9.332;2023-03-01T01:12:15;54.75;;;8.60;;
64597;SDS011;51004;54.692;9.332;2023-03-01T01:14:41;29.90;;;8.05;;
64597;SDS011;51004;54.692;9.332;2023-03-01T01:17:07;26.45;;;7.82;;
64597;SDS011;51004;54.692;9.332;2023-03-01T01:19:33;16.98;;;8.50;;
64597;SDS011;51004;54.692;9.332;2023-03-01T01:21:59;23.05;;;8.68;;
64597;SDS011;51004;54.692;9.332;2023-03-01T01:24:25;15.98;;;8.40;;
64597;SDS011;51004;54.692;9.332;2023-03-01T01:26:51;23.95;;;8.48;;
64597;SDS011;51004;54.692;9.332;2023-03-01T01:29:17;23.10;;;8.18;;
64597;SDS011;51004;54.692;9.332;2023-03-01T01:31:43;31.08;;;8.38;;
64597;SDS011;51004;54.692;9.332;2023-03-01T01:34:13;27.45;;;8.20;;
64597;SDS011;51004;54.692;9.332;2023-03-01T01:36:40;29.05;;;7.93;;
64597;SDS011;51004;54.692;9.332;2023-03-01T01:39:06;24.48;;;8.40;;
64597;SDS011;51004;54.692;9.332;2023-03-01T01:41:32;31.25;;;6.88;;
64597;SDS011;51004;54.692;9.332;2023-03-01T01:44:12;26.67;;;5.80;;
64597;SDS011;51004;54.692;9.332;2023-03-01T01:49:35;17.77;;;5.70;;
64597;SDS011;51004;54.692;9.332;2023-03-01T01:52:04;18.90;;;5.25;;
64597;SDS011;51004;54.692;9.332;2023-03-01T01:54:34;27.13;;;5.50;;
64597;SDS011;51004;54.692;9.332;2023-03-01T01:57:03;22.80;;;5.55;;
64597;SDS011;51004;54.692;9.332;2023-03-01T01:59:32;21.25;;;5.95;;
64597;SDS011;51004;54.692;9.332;2023-03-01T02:01:59;29.08;;;6.00;;
64597;SDS011;51004;54.692;9.332;2023-03-01T02:04:26;29.48;;;5.78;;
64597;SDS011;51004;54.692;9.332;2023-03-01T02:06:54;24.80;;;6.05;;
64597;SDS011;51004;54.692;9.332;2023-03-01T02:09:23;25.02;;;6.40;;
64597;SDS011;51004;54.692;9.332;2023-03-01T02:11:49;37.13;;;6.18;;
64597;SDS011;51004;54.692;9.332;2023-03-01T02:14:15;31.65;;;6.05;;
64597;SDS011;51004;54.692;9.332;2023-03-01T02:16:41;29.95;;;6.05;;
64597;SDS011;51004;54.692;9.332;2023-03-01T02:19:08;14.90;;;5.10;;
64597;SDS011;51004;54.692;9.332;2023-03-01T02:21:46;38.88;;;6.00;;
64597;SDS011;51004;54.692;9.332;2023-03-01T02:26:51;24.67;;;6.22;;
64597;SDS011;51004;54.692;9.332;2023-03-01T02:29:18;24.40;;;6.30;;
64597;SDS011;51004;54.692;9.332;2023-03-01T02:31:44;49.10;;;7.00;;
64597;SDS011;51004;54.692;9.332;2023-03-01T02:34:28;34.33;;;6.75;;
64597;SDS011;51004;54.692;9.332;2023-03-01T02:37:08;28.08;;;6.57;;
64597;SDS011;51004;54.692;9.332;2023-03-01T02:39:37;26.42;;;6.53;;
64597;SDS011;51004;54.692;9.332;2023-03-01T02:42:07;41.65;;;6.63;;
64597;SDS011;51004;54.692;9.332;2023-03-01T02:44:36;36.83;;;7.18;;
64597;SDS011;51004;54.692;9.332;2023-03-01T02:47:02;38.20;;;7.25;;
64597;SDS011;51004;54.692;9.332;2023-03-01T02:49:30;26.40;;;6.57;;
64597;SDS011;51004;54.692;9.332;2023-03-01T02:54:46;38.53;;;6.68;;
64597;SDS011;51004;54.692;9.332;2023-03-01T02:57:14;68.63;;;7.47;;
64597;SDS011;51004;54.692;9.332;2023-03-01T02:59:41;45.30;;;7.07;;
64597;SDS011;51004;54.692;9.332;2023-03-01T03:02:17;32.40;;;7.00;;
64597;SDS011;51004;54.692;9.332;2023-03-01T03:04:45;55.38;;;7.90;;
64597;SDS011;51004;54.692;9.332;2023-03-01T03:07:11;44.60;;;6.43;;
64597;SDS011;51004;54.692;9.332;2023-03-01T03:09:37;45.55;;;6.97;;
64597;SDS011;51004;54.692;9.332;2023-03-01T03:12:03;41.70;;;7.55;;
64597;SDS011;51004;54.692;9.332;2023-03-01T03:14:29;47.95;;;6.50;;
64597;SDS011;51004;54.692;9.332;2023-03-01T03:16:55;64.07;;;6.70;;
64597;SDS011;51004;54.692;9.332;2023-03-01T03:19:21;58.92;;;6.80;;
64597;SDS011;51004;54.692;9.332;2023-03-01T03:21:46;78.60;;;7.20;;
64597;SDS011;51004;54.692;9.332;2023-03-01T03:24:12;56.65;;;6.63;;
64597;SDS011;51004;54.692;9.332;2023-03-01T03:26:38;84.15;;;7.80;;
64597;SDS011;51004;54.692;9.332;2023-03-01T03:29:04;107.13;;;8.05;;
64597;SDS011;51004;54.692;9.332;2023-03-01T03:31:30;65.10;;;6.95;;
64597;SDS011;51004;54.692;9.332;2023-03-01T03:33:56;106.20;;;8.35;;
64597;SDS011;51004;54.692;9.332;2023-03-01T03:36:23;81.85;;;7.50;;
64597;SDS011;51004;54.692;9.332;2023-03-01T03:38:49;88.43;;;7.70;;
64597;SDS011;51004;54.692;9.332;2023-03-01T03:41:16;45.65;;;6.80;;
64597;SDS011;51004;54.692;9.332;2023-03-01T03:43:43;83.25;;;7.20;;
64597;SDS011;51004;54.692;9.332;2023-03-01T03:46:09;62.13;;;7.15;;
64597;SDS011;51004;54.692;9.332;2023-03-01T03:48:37;43.45;;;7.35;;
64597;SDS011;51004;54.692;9.332;2023-03-01T03:51:03;42.70;;;6.38;;
64597;SDS011;51004;54.692;9.332;2023-03-01T03:53:30;37.03;;;6.63;;
64597;SDS011;51004;54.692;9.332;2023-03-01T03:55:57;32.22;;;6.32;;
64597;SDS011;51004;54.692;9.332;2023-03-01T03:58:23;38.03;;;6.95;;
64597;SDS011;51004;54.692;9.332;2023-03-01T04:00:51;29.25;;;6.72;;
64597;SDS011;51004;54.692;9.332;2023-03-01T04:03:17;32.92;;;6.32;;
64597;SDS011;51004;54.692;9.332;2023-03-01T04:05:44;31.05;;;6.22;;
64597;SDS011;51004;54.692;9.332;2023-03-01T04:08:11;63.80;;;7.15;;
64597;SDS011;51004;54.692;9.332;2023-03-01T04:10:38;74.65;;;7.95;;
64597;SDS011;51004;54.692;9.332;2023-03-01T04:13:05;71.68;;;7.28;;
64597;SDS011;51004;54.692;9.332;2023-03-01T04:15:31;32.38;;;7.22;;
64597;SDS011;51004;54.692;9.332;2023-03-01T04:17:58;32.03;;;7.20;;
64597;SDS011;51004;54.692;9.332;2023-03-01T04:20:25;68.20;;;6.78;;
64597;SDS011;51004;54.692;9.332;2023-03-01T04:23:11;55.60;;;6.45;;
64597;SDS011;51004;54.692;9.332;2023-03-01T04:25:41;15.65;;;5.70;;
64597;SDS011;51004;54.692;9.332;2023-03-01T04:28:07;37.33;;;5.50;;
64597;SDS011;51004;54.692;9.332;2023-03-01T04:30:34;55.75;;;5.78;;
64597;SDS011;51004;54.692;9.332;2023-03-01T04:33:01;15.32;;;5.43;;
64597;SDS011;51004;54.692;9.332;2023-03-01T04:35:27;29.00;;;5.90;;
64597;SDS011;51004;54.692;9.332;2023-03-01T04:37:53;42.95;;;5.45;;
64597;SDS011;51004;54.692;9.332;2023-03-01T04:40:19;25.65;;;5.40;;
64597;SDS011;51004;54.692;9.332;2023-03-01T04:42:46;32.50;;;4.93;;
64597;SDS011;51004;54.692;9.332;2023-03-01T04:45:12;42.30;;;5.25;;
64597;SDS011;51004;54.692;9.332;2023-03-01T04:47:41;26.38;;;5.40;;
64597;SDS011;51004;54.692;9.332;2023-03-01T04:50:10;24.90;;;5.30;;
64597;SDS011;51004;54.692;9.332;2023-03-01T04:52:36;19.75;;;4.80;;
64597;SDS011;51004;54.692;9.332;2023-03-01T04:55:02;22.65;;;6.05;;
64597;SDS011;51004;54.692;9.332;2023-03-01T04:57:28;18.45;;;5.60;;
64597;SDS011;51004;54.692;9.332;2023-03-01T04:59:54;26.30;;;5.45;;
64597;SDS011;51004;54.692;9.332;2023-03-01T05:02:20;17.83;;;5.40;;
64597;SDS011;51004;54.692;9.332;2023-03-01T05:04:46;16.48;;;5.32;;
64597;SDS011;51004;54.692;9.332;2023-03-01T05:07:12;21.65;;;5.30;;
64597;SDS011;51004;54.692;9.332;2023-03-01T05:09:44;30.10;;;5.80;;
64597;SDS011;51004;54.692;9.332;2023-03-01T05:12:10;42.85;;;5.85;;
64597;SDS011;51004;54.692;9.332;2023-03-01T05:14:36;39.03;;;5.68;;
64597;SDS011;51004;54.692;9.332;2023-03-01T05:17:03;52.40;;;6.13;;
64597;SDS011;51004;54.692;9.332;2023-03-01T05:19:29;45.22;;;6.10;;
64597;SDS011;51004;54.692;9.332;2023-03-01T05:21:56;21.52;;;5.32;;
64597;SDS011;51004;54.692;9.332;2023-03-01T05:24:32;18.27;;;5.32;;
64597;SDS011;51004;54.692;9.332;2023-03-01T05:26:58;34.95;;;5.63;;
64597;SDS011;51004;54.692;9.332;2023-03-01T05:29:25;57.55;;;6.15;;
64597;SDS011;51004;54.692;9.332;2023-03-01T05:31:52;43.78;;;6.00;;
64597;SDS011;51004;54.692;9.332;2023-03-01T05:34:19;35.30;;;5.78;;
64597;SDS011;51004;54.692;9.332;2023-03-01T05:36:48;24.25;;;5.80;;
64597;SDS011;51004;54.692;9.332;2023-03-01T05:39:17;51.50;;;5.97;;
64597;SDS011;51004;54.692;9.332;2023-03-01T05:41:43;60.55;;;6.90;;
64597;SDS011;51004;54.692;9.332;2023-03-01T05:44:09;47.70;;;6.13;;
64597;SDS011;51004;54.692;9.332;2023-03-01T05:46:37;19.45;;;5.45;;
64597;SDS011;51004;54.692;9.332;2023-03-01T05:49:03;29.13;;;5.63;;
64597;SDS011;51004;54.692;9.332;2023-03-01T05:51:29;22.98;;;5.82;;
64597;SDS011;51004;54.692;9.332;2023-03-01T05:53:55;53.75;;;6.03;;
64597;SDS011;51004;54.692;9.332;2023-03-01T05:56:21;22.92;;;5.72;;
64597;SDS011;51004;54.692;9.332;2023-03-01T05:58:47;48.13;;;5.63;;
64597;SDS011;51004;54.692;9.332;2023-03-01T06:01:14;50.20;;;5.78;;
64597;SDS011;51004;54.692;9.332;2023-03-01T06:03:40;36.50;;;5.20;;
64597;SDS011;51004;54.692;9.332;2023-03-01T06:06:06;46.88;;;6.15;;
64597;SDS011;51004;54.692;9.332;2023-03-01T06:08:32;26.60;;;5.93;;
64597;SDS011;51004;54.692;9.332;2023-03-01T06:10:58;11.23;;;5.03;;
64597;SDS011;51004;54.692;9.332;2023-03-01T06:13:24;33.22;;;5.20;;
64597;SDS011;51004;54.692;9.332;2023-03-01T06:15:50;19.02;;;5.25;;
64597;SDS011;51004;54.692;9.332;2023-03-01T06:18:16;8.25;;;5.03;;
64597;SDS011;51004;54.692;9.332;2023-03-01T06:20:42;17.23;;;5.60;;
64597;SDS011;51004;54.692;9.332;2023-03-01T06:23:08;12.02;;;5.20;;
64597;SDS011;51004;54.692;9.332;2023-03-01T06:25:34;21.08;;;5.68;;
64597;SDS011;51004;54.692;9.332;2023-03-01T06:28:00;24.40;;;6.10;;
64597;SDS011;51004;54.692;9.332;2023-03-01T06:30:26;26.33;;;6.90;;
64597;SDS011;51004;54.692;9.332;2023-03-01T06:32:52;38.90;;;6.55;;
64597;SDS011;51004;54.692;9.332;2023-03-01T06:35:25;29.48;;;6.00;;
64597;SDS011;51004;54.692;9.332;2023-03-01T06:37:54;25.75;;;6.22;;
64597;SDS011;51004;54.692;9.332;2023-03-01T06:40:20;23.85;;;5.25;;
64597;SDS011;51004;54.692;9.332;2023-03-01T06:42:49;9.05;;;6.05;;
64597;SDS011;51004;54.692;9.332;2023-03-01T06:45:16;40.08;;;5.43;;
64597;SDS011;51004;54.692;9.332;2023-03-01T06:47:42;23.10;;;4.43;;
64597;SDS011;51004;54.692;9.332;2023-03-01T06:50:08;42.75;;;5.10;;
64597;SDS011;51004;54.692;9.332;2023-03-01T06:52:35;33.83;;;5.32;;
64597;SDS011;51004;54.692;9.332;2023-03-01T06:55:00;15.60;;;4.72;;
64597;SDS011;51004;54.692;9.332;2023-03-01T06:57:27;15.07;;;4.43;;
64597;SDS011;51004;54.692;9.332;2023-03-01T06:59:53;22.50;;;4.70;;
64597;SDS011;51004;54.692;9.332;2023-03-01T07:02:19;14.05;;;3.60;;
64597;SDS011;51004;54.692;9.332;2023-03-01T07:04:45;9.52;;;4.00;;
64597;SDS011;51004;54.692;9.332;2023-03-01T07:07:10;19.98;;;3.92;;
64597;SDS011;51004;54.692;9.332;2023-03-01T07:09:36;76.53;;;4.82;;
64597;SDS011;51004;54.692;9.332;2023-03-01T07:12:03;15.05;;;3.75;;
64597;SDS011;51004;54.692;9.332;2023-03-01T07:14:29;17.90;;;4.18;;
64597;SDS011;51004;54.692;9.332;2023-03-01T07:16:55;19.33;;;3.65;;
64597;SDS011;51004;54.692;9.332;2023-03-01T07:19:21;12.73;;;4.05;;
64597;SDS011;51004;54.692;9.332;2023-03-01T07:21:47;15.30;;;3.90;;
64597;SDS011;51004;54.692;9.332;2023-03-01T07:24:13;9.45;;;3.42;;
64597;SDS011;51004;54.692;9.332;2023-03-01T07:26:38;12.02;;;3.45;;
64597;SDS011;51004;54.692;9.332;2023-03-01T07:29:05;14.65;;;4.32;;
64597;SDS011;51004;54.692;9.332;2023-03-01T07:31:31;33.05;;;4.07;;
64597;SDS011;51004;54.692;9.332;2023-03-01T07:33:58;23.40;;;4.13;;
64597;SDS011;51004;54.692;9.332;2023-03-01T07:36:24;22.35;;;4.40;;
64597;SDS011;51004;54.692;9.332;2023-03-01T07:38:50;26.88;;;4.32;;
64597;SDS011;51004;54.692;9.332;2023-03-01T07:41:16;32.10;;;4.22;;
64597;SDS011;51004;54.692;9.332;2023-03-01T07:43:42;34.13;;;4.63;;
64597;SDS011;51004;54.692;9.332;2023-03-01T07:46:08;62.03;;;4.28;;
64597;SDS011;51004;54.692;9.332;2023-03-01T07:48:34;49.75;;;4.10;;
64597;SDS011;51004;54.692;9.332;2023-03-01T07:51:00;39.35;;;3.70;;
64597;SDS011;51004;54.692;9.332;2023-03-01T07:53:26;5.15;;;2.42;;
64597;SDS011;51004;54.692;9.332;2023-03-01T07:56:02;52.65;;;4.50;;
64597;SDS011;51004;54.692;9.332;2023-03-01T07:58:28;26.13;;;3.28;;
64597;SDS011;51004;54.692;9.332;2023-03-01T08:00:54;11.90;;;2.78;;
64597;SDS011;51004;54.692;9.332;2023-03-01T08:03:20;35.30;;;3.13;;
64597;SDS011;51004;54.692;9.332;2023-03-01T08:05:46;23.95;;;2.55;;
64597;SDS011;51004;54.692;9.332;2023-03-01T08:08:12;24.00;;;3.05;;
64597;SDS011;51004;54.692;9.332;2023-03-01T08:10:38;16.80;;;2.83;;
64597;SDS011;51004;54.692;9.332;2023-03-01T08:13:04;14.35;;;2.10;;
64597;SDS011;51004;54.692;9.332;2023-03-01T08:15:30;19.63;;;2.38;;
64597;SDS011;51004;54.692;9.332;2023-03-01T08:17:56;22.17;;;2.42;;
64597;SDS011;51004;54.692;9.332;2023-03-01T08:20:21;13.93;;;2.40;;
64597;SDS011;51004;54.692;9.332;2023-03-01T08:22:47;20.40;;;2.60;;
64597;SDS011;51004;54.692;9.332;2023-03-01T08:25:13;41.20;;;5.03;;
64597;SDS011;51004;54.692;9.332;2023-03-01T08:27:39;14.63;;;3.00;;
64597;SDS011;51004;54.692;9.332;2023-03-01T08:30:05;26.67;;;2.33;;
64597;SDS011;51004;54.692;9.332;2023-03-01T08:32:35;12.07;;;2.35;;
64597;SDS011;51004;54.692;9.332;2023-03-01T08:35:01;12.20;;;2.17;;
64597;SDS011;51004;54.692;9.332;2023-03-01T08:37:27;17.90;;;2.40;;
64597;SDS011;51004;54.692;9.332;2023-03-01T08:39:55;37.28;;;3.10;;
64597;SDS011;51004;54.692;9.332;2023-03-01T08:42:21;56.50;;;3.47;;
64597;SDS011;51004;54.692;9.332;2023-03-01T08:44:47;34.20;;;3.10;;
64597;SDS011;51004;54.692;9.332;2023-03-01T08:47:13;27.23;;;3.72;;
64597;SDS011;51004;54.692;9.332;2023-03-01T08:49:39;50.47;;;3.67;;
64597;SDS011;51004;54.692;9.332;2023-03-01T08:52:05;62.13;;;4.22;;
64597;SDS011;51004;54.692;9.332;2023-03-01T08:54:31;44.85;;;4.03;;
64597;SDS011;51004;54.692;9.332;2023-03-01T08:56:57;19.75;;;2.80;;
64597;SDS011;51004;54.692;9.332;2023-03-01T08:59:25;49.25;;;5.05;;
64597;SDS011;51004;54.692;9.332;2023-03-01T09:01:51;80.32;;;5.47;;
64597;SDS011;51004;54.692;9.332;2023-03-01T09:04:18;39.17;;;5.57;;
64597;SDS011;51004;54.692;9.332;2023-03-01T09:06:43;40.90;;;4.85;;
64597;SDS011;51004;54.692;9.332;2023-03-01T09:09:13;68.40;;;6.03;;
64597;SDS011;51004;54.692;9.332;2023-03-01T09:11:40;43.67;;;5.60;;
64597;SDS011;51004;54.692;9.332;2023-03-01T09:14:06;24.05;;;5.28;;
64597;SDS011;51004;54.692;9.332;2023-03-01T09:16:32;42.08;;;6.28;;
64597;SDS011;51004;54.692;9.332;2023-03-01T09:19:01;22.35;;;5.93;;
64597;SDS011;51004;54.692;9.332;2023-03-01T09:21:27;24.63;;;5.93;;
64597;SDS011;51004;54.692;9.332;2023-03-01T09:23:53;22.80;;;6.65;;
64597;SDS011;51004;54.692;9.332;2023-03-01T09:26:20;22.05;;;5.97;;
64597;SDS011;51004;54.692;9.332;2023-03-01T09:28:47;26.00;;;6.85;;
64597;SDS011;51004;54.692;9.332;2023-03-01T09:31:13;15.40;;;7.22;;
64597;SDS011;51004;54.692;9.332;2023-03-01T09:33:39;18.05;;;6.57;;
64597;SDS011;51004;54.692;9.332;2023-03-01T09:36:06;17.73;;;5.93;;
64597;SDS011;51004;54.692;9.332;2023-03-01T09:38:33;7.82;;;5.90;;
64597;SDS011;51004;54.692;9.332;2023-03-01T09:40:59;23.85;;;8.32;;
64597;SDS011;51004;54.692;9.332;2023-03-01T09:45:52;18.38;;;7.93;;
64597;SDS011;51004;54.692;9.332;2023-03-01T09:48:20;15.18;;;6.45;;
64597;SDS011;51004;54.692;9.332;2023-03-01T09:50:48;14.15;;;8.57;;
64597;SDS011;51004;54.692;9.332;2023-03-01T09:53:21;19.35;;;8.63;;
64597;SDS011;51004;54.692;9.332;2023-03-01T10:01:02;13.68;;;8.13;;
64597;SDS011;51004;54.692;9.332;2023-03-01T10:03:37;19.63;;;7.60;;
64597;SDS011;51004;54.692;9.332;2023-03-01T10:08:34;26.23;;;10.43;;
64597;SDS011;51004;54.692;9.332;2023-03-01T10:11:04;19.75;;;9.13;;
64597;SDS011;51004;54.692;9.332;2023-03-01T10:13:33;13.85;;;9.18;;
64597;SDS011;51004;54.692;9.332;2023-03-01T10:16:05;15.05;;;7.63;;
64597;SDS011;51004;54.692;9.332;2023-03-01T10:18:35;22.02;;;9.30;;
64597;SDS011;51004;54.692;9.332;2023-03-01T10:21:07;15.38;;;9.45;;
64597;SDS011;51004;54.692;9.332;2023-03-01T10:23:37;12.35;;;8.32;;
64597;SDS011;51004;54.692;9.332;2023-03-01T10:31:11;18.50;;;10.20;;
64597;SDS011;51004;54.692;9.332;2023-03-01T10:33:37;16.42;;;10.15;;
64597;SDS011;51004;54.692;9.332;2023-03-01T10:36:07;17.98;;;10.63;;
64597;SDS011;51004;54.692;9.332;2023-03-01T10:41:14;18.20;;;11.20;;
64597;SDS011;51004;54.692;9.332;2023-03-01T10:43:43;16.85;;;9.85;;
64597;SDS011;51004;54.692;9.332;2023-03-01T10:46:22;17.50;;;11.45;;
64597;SDS011;51004;54.692;9.332;2023-03-01T10:49:02;17.17;;;10.27;;
64597;SDS011;51004;54.692;9.332;2023-03-01T10:51:31;24.08;;;12.25;;
64597;SDS011;51004;54.692;9.332;2023-03-01T10:53:57;16.52;;;11.32;;
64597;SDS011;51004;54.692;9.332;2023-03-01T10:56:23;18.00;;;11.85;;
64597;SDS011;51004;54.692;9.332;2023-03-01T10:59:04;19.13;;;10.65;;
64597;SDS011;51004;54.692;9.332;2023-03-01T11:01:31;19.20;;;11.57;;
64597;SDS011;51004;54.692;9.332;2023-03-01T11:06:34;20.92;;;11.57;;
64597;SDS011;51004;54.692;9.332;2023-03-01T11:11:41;19.38;;;12.35;;
64597;SDS011;51004;54.692;9.332;2023-03-01T11:14:12;18.95;;;10.95;;
64597;SDS011;51004;54.692;9.332;2023-03-01T11:16:39;19.10;;;12.48;;
64597;SDS011;51004;54.692;9.332;2023-03-01T11:21:47;17.95;;;11.05;;
64597;SDS011;51004;54.692;9.332;2023-03-01T11:24:17;20.35;;;12.27;;
64597;SDS011;51004;54.692;9.332;2023-03-01T11:26:46;22.10;;;12.82;;
64597;SDS011;51004;54.692;9.332;2023-03-01T11:29:18;17.90;;;11.73;;
64597;SDS011;51004;54.692;9.332;2023-03-01T11:31:47;17.60;;;11.32;;
64597;SDS011;51004;54.692;9.332;2023-03-01T11:34:15;18.70;;;10.98;;
64597;SDS011;51004;54.692;9.332;2023-03-01T11:36:43;18.50;;;12.77;;
64597;SDS011;51004;54.692;9.332;2023-03-01T11:44:43;17.85;;;12.00;;
64597;SDS011;51004;54.692;9.332;2023-03-01T12:03:25;19.40;;;12.60;;
64597;SDS011;51004;54.692;9.332;2023-03-01T12:08:45;18.88;;;12.88;;
64597;SDS011;51004;54.692;9.332;2023-03-01T12:19:01;14.68;;;10.10;;
64597;SDS011;51004;54.692;9.332;2023-03-01T12:24:21;16.48;;;11.25;;
64597;SDS011;51004;54.692;9.332;2023-03-01T12:27:07;17.20;;;12.90;;
64597;SDS011;51004;54.692;9.332;2023-03-01T12:34:48;16.00;;;11.15;;
64597;SDS011;51004;54.692;9.332;2023-03-01T12:42:37;13.68;;;10.52;;
64597;SDS011;51004;54.692;9.332;2023-03-01T12:45:16;14.73;;;11.50;;
64597;SDS011;51004;54.692;9.332;2023-03-01T12:47:58;13.43;;;10.40;;
64597;SDS011;51004;54.692;9.332;2023-03-01T12:50:44;14.98;;;10.90;;
64597;SDS011;51004;54.692;9.332;2023-03-01T12:55:44;17.02;;;12.80;;
64597;SDS011;51004;54.692;9.332;2023-03-01T12:58:32;14.60;;;11.90;;
64597;SDS011;51004;54.692;9.332;2023-03-01T13:01:15;14.27;;;11.70;;
64597;SDS011;51004;54.692;9.332;2023-03-01T13:06:22;15.63;;;11.27;;
64597;SDS011;51004;54.692;9.332;2023-03-01T13:11:22;17.00;;;12.57;;
64597;SDS011;51004;54.692;9.332;2023-03-01T13:13:48;16.73;;;12.55;;
64597;SDS011;51004;54.692;9.332;2023-03-01T13:16:19;16.45;;;11.50;;
64597;SDS011;51004;54.692;9.332;2023-03-01T13:18:47;14.85;;;11.43;;
64597;SDS011;51004;54.692;9.332;2023-03-01T13:21:13;15.18;;;10.85;;
64597;SDS011;51004;54.692;9.332;2023-03-01T13:23:54;14.93;;;12.18;;
64597;SDS011;51004;54.692;9.332;2023-03-01T13:26:20;15.93;;;11.52;;
64597;SDS011;51004;54.692;9.332;2023-03-01T13:33:44;16.63;;;13.77;;
64597;SDS011;51004;54.692;9.332;2023-03-01T13:36:13;17.50;;;14.40;;
64597;SDS011;51004;54.692;9.332;2023-03-01T13:46:46;14.13;;;10.77;;
64597;SDS011;51004;54.692;9.332;2023-03-01T13:49:14;16.20;;;12.48;;
64597;SDS011;51004;54.692;9.332;2023-03-01T13:51:40;16.73;;;13.50;;
64597;SDS011;51004;54.692;9.332;2023-03-01T13:54:09;16.92;;;11.98;;
64597;SDS011;51004;54.692;9.332;2023-03-01T13:56:37;16.83;;;11.70;;
64597;SDS011;51004;54.692;9.332;2023-03-01T13:59:16;16.13;;;12.93;;
64597;SDS011;51004;54.692;9.332;2023-03-01T14:01:42;13.57;;;11.45;;
64597;SDS011;51004;54.692;9.332;2023-03-01T14:04:20;15.60;;;11.60;;
64597;SDS011;51004;54.692;9.332;2023-03-01T14:06:46;13.98;;;11.82;;
64597;SDS011;51004;54.692;9.332;2023-03-01T14:09:16;13.82;;;10.77;;
64597;SDS011;51004;54.692;9.332;2023-03-01T14:19:20;14.50;;;12.57;;
64597;SDS011;51004;54.692;9.332;2023-03-01T14:21:49;15.68;;;12.88;;
64597;SDS011;51004;54.692;9.332;2023-03-01T14:24:27;18.17;;;15.10;;
64597;SDS011;51004;54.692;9.332;2023-03-01T14:26:53;18.80;;;14.13;;
64597;SDS011;51004;54.692;9.332;2023-03-01T14:29:35;18.63;;;14.50;;
64597;SDS011;51004;54.692;9.332;2023-03-01T14:32:12;18.80;;;14.48;;
64597;SDS011;51004;54.692;9.332;2023-03-01T14:34:42;15.55;;;12.20;;
64597;SDS011;51004;54.692;9.332;2023-03-01T14:37:17;18.27;;;14.32;;
64597;SDS011;51004;54.692;9.332;2023-03-01T14:39:44;18.85;;;15.60;;
64597;SDS011;51004;54.692;9.332;2023-03-01T14:42:10;19.92;;;15.20;;
64597;SDS011;51004;54.692;9.332;2023-03-01T14:44:37;21.67;;;16.33;;
64597;SDS011;51004;54.692;9.332;2023-03-01T14:47:03;20.33;;;15.82;;
64597;SDS011;51004;54.692;9.332;2023-03-01T14:49:30;18.00;;;14.38;;
64597;SDS011;51004;54.692;9.332;2023-03-01T14:51:58;21.63;;;16.80;;
64597;SDS011;51004;54.692;9.332;2023-03-01T14:54:35;25.08;;;18.13;;
64597;SDS011;51004;54.692;9.332;2023-03-01T14:57:03;22.42;;;16.63;;
64597;SDS011;51004;54.692;9.332;2023-03-01T14:59:29;22.40;;;17.52;;
64597;SDS011;51004;54.692;9.332;2023-03-01T15:01:55;29.25;;;21.23;;
64597;SDS011;51004;54.692;9.332;2023-03-01T15:04:22;33.42;;;24.67;;
64597;SDS011;51004;54.692;9.332;2023-03-01T15:06:52;33.25;;;25.05;;
64597;SDS011;51004;54.692;9.332;2023-03-01T15:09:18;40.20;;;26.90;;
64597;SDS011;51004;54.692;9.332;2023-03-01T15:11:44;39.72;;;29.23;;
64597;SDS011;51004;54.692;9.332;2023-03-01T15:14:38;38.97;;;25.92;;
64597;SDS011;51004;54.692;9.332;2023-03-01T15:17:13;36.38;;;25.65;;
64597;SDS011;51004;54.692;9.332;2023-03-01T15:19:40;38.63;;;25.17;;
64597;SDS011;51004;54.692;9.332;2023-03-01T15:22:12;46.83;;;30.88;;
64597;SDS011;51004;54.692;9.332;2023-03-01T15:24:39;44.15;;;29.17;;
64597;SDS011;51004;54.692;9.332;2023-03-01T15:27:12;40.35;;;27.70;;
64597;SDS011;51004;54.692;9.332;2023-03-01T15:29:40;39.42;;;28.17;;
64597;SDS011;51004;54.692;9.332;2023-03-01T15:34:51;41.17;;;29.33;;
64597;SDS011;51004;54.692;9.332;2023-03-01T15:37:39;42.15;;;29.65;;
64597;SDS011;51004;54.692;9.332;2023-03-01T15:40:17;44.47;;;29.83;;
64597;SDS011;51004;54.692;9.332;2023-03-01T15:42:44;41.75;;;29.38;;
64597;SDS011;51004;54.692;9.332;2023-03-01T15:45:11;31.75;;;22.27;;
64597;SDS011;51004;54.692;9.332;2023-03-01T15:47:39;29.75;;;22.00;;
64597;SDS011;51004;54.692;9.332;2023-03-01T15:50:11;28.02;;;20.25;;
64597;SDS011;51004;54.692;9.332;2023-03-01T15:52:41;31.05;;;22.35;;
64597;SDS011;51004;54.692;9.332;2023-03-01T15:55:15;29.77;;;22.38;;
64597;SDS011;51004;54.692;9.332;2023-03-01T15:57:41;28.10;;;21.45;;
64597;SDS011;51004;54.692;9.332;2023-03-01T16:00:11;32.53;;;22.05;;
64597;SDS011;51004;54.692;9.332;2023-03-01T16:02:38;30.83;;;22.25;;
64597;SDS011;51004;54.692;9.332;2023-03-01T16:05:04;28.95;;;21.45;;
64597;SDS011;51004;54.692;9.332;2023-03-01T16:07:30;24.83;;;18.73;;
64597;SDS011;51004;54.692;9.332;2023-03-01T16:09:56;25.20;;;19.70;;
64597;SDS011;51004;54.692;9.332;2023-03-01T16:12:22;25.05;;;18.23;;
64597;SDS011;51004;54.692;9.332;2023-03-01T16:14:49;24.00;;;18.05;;
64597;SDS011;51004;54.692;9.332;2023-03-01T16:17:16;18.92;;;15.73;;
64597;SDS011;51004;54.692;9.332;2023-03-01T16:19:42;18.52;;;14.88;;
64597;SDS011;51004;54.692;9.332;2023-03-01T16:22:09;16.17;;;14.45;;
64597;SDS011;51004;54.692;9.332;2023-03-01T16:24:35;17.25;;;14.07;;
64597;SDS011;51004;54.692;9.332;2023-03-01T16:27:01;17.63;;;14.63;;